Terminal Aerodrome Forecast
Issued by NWS

Home | Current Version | Previous Version | Text Only | Print | Product List | Glossary On
Versions: 1 2 3 4 5 6 7 8 9 10 11 12 13 14 15 16 17
000
FTUS45 KABQ 252343
TAFAEG
TAF
KAEG 252343Z 2600/2624 06010KT P6SM VCTS BKN080CB OVC140
      TEMPO 2600/2602 VRB20G30KT -SHRA BKN070
     FM260200 12010KT P6SM VCSH SCT090 BKN120
     FM260500 05007KT P6SM SCT130
     FM262000 29010KT P6SM SCT080=

USA.gov is the U.S. government's official web portal to all federal, state and local government web resources and services.